createdAt,value
2022-09-27T00:00:32.857Z,9.418295
2022-09-27T00:01:32.880Z,9.418419
2022-09-27T00:02:32.910Z,9.418059
2022-09-27T00:03:32.834Z,9.418299
2022-09-27T00:04:32.832Z,9.418328
2022-09-27T00:05:32.809Z,9.418330
2022-09-27T00:06:32.883Z,9.418380
2022-09-27T00:07:32.810Z,9.418388
2022-09-27T00:08:32.786Z,9.418361
2022-09-27T00:09:32.787Z,9.418447
2022-09-27T00:10:32.780Z,9.418231
2022-09-27T00:11:32.782Z,9.418169
2022-09-27T00:12:32.763Z,9.418203
2022-09-27T00:13:32.758Z,9.418287
2022-09-27T00:14:32.746Z,9.418172
2022-09-27T00:15:32.819Z,9.418160
2022-09-27T00:16:32.736Z,9.418077
2022-09-27T00:17:32.747Z,9.418270
2022-09-27T00:18:32.715Z,9.418346
2022-09-27T00:19:32.719Z,9.418520
2022-09-27T00:20:32.714Z,9.418493
2022-09-27T00:21:32.710Z,9.418500
2022-09-27T00:22:32.715Z,9.418452
2022-09-27T00:23:32.687Z,9.418432
2022-09-27T00:24:32.686Z,9.418457
2022-09-27T00:25:32.727Z,9.418404
2022-09-27T00:26:32.670Z,9.418364
2022-09-27T00:27:32.675Z,9.418425
2022-09-27T00:28:32.656Z,9.418342
2022-09-27T00:29:32.671Z,9.418508
2022-09-27T00:30:32.635Z,9.418533
2022-09-27T00:31:32.705Z,9.418512
2022-09-27T00:32:32.627Z,9.418537
2022-09-27T00:33:32.613Z,9.418304
2022-09-27T00:34:32.635Z,9.418280
2022-09-27T00:35:32.599Z,9.418407
2022-09-27T00:36:32.603Z,9.418354
2022-09-27T00:37:32.603Z,9.418172
2022-09-27T00:38:32.587Z,9.418401
2022-09-27T00:39:32.570Z,9.418452
2022-09-27T00:40:32.641Z,9.418443
2022-09-27T00:41:32.569Z,9.418676
2022-09-27T00:42:32.542Z,9.418574
2022-09-27T00:43:32.555Z,9.418531
2022-09-27T00:44:32.551Z,9.418350
2022-09-27T00:45:32.543Z,9.418230
2022-09-27T00:46:32.616Z,9.418238
2022-09-27T00:47:32.523Z,9.418070
2022-09-27T00:48:32.515Z,9.418081
2022-09-27T00:49:32.512Z,9.418013
2022-09-27T00:50:32.525Z,9.418103
2022-09-27T00:51:32.523Z,9.418363
2022-09-27T00:52:32.492Z,9.418309
2022-09-27T00:53:32.486Z,9.418059
2022-09-27T00:54:32.476Z,9.418008
2022-09-27T00:55:32.475Z,9.417991
2022-09-27T00:56:32.464Z,9.417864
2022-09-27T00:57:33.468Z,9.417854
2022-09-27T00:58:32.444Z,9.417560
2022-09-27T00:59:32.447Z,9.417668
2022-09-27T01:00:32.431Z,9.417500
2022-09-27T01:01:32.499Z,9.417493
2022-09-27T01:02:32.457Z,9.417593
2022-09-27T01:03:32.425Z,9.417650
2022-09-27T01:04:32.411Z,9.417668
2022-09-27T01:05:32.400Z,9.417712
2022-09-27T01:06:32.402Z,9.417748
2022-09-27T01:07:32.376Z,9.417882
2022-09-27T01:08:32.377Z,9.417989
2022-09-27T01:09:32.368Z,9.418293
2022-09-27T01:10:32.360Z,9.418325
2022-09-27T01:11:32.373Z,9.418001
2022-09-27T01:12:32.335Z,9.417719
2022-09-27T01:13:32.345Z,9.417681
2022-09-27T01:14:32.336Z,9.417910
2022-09-27T01:15:32.408Z,9.418103
2022-09-27T01:16:32.351Z,9.418138
2022-09-27T01:17:32.316Z,9.418156
2022-09-27T01:18:32.299Z,9.418337
2022-09-27T01:19:32.292Z,9.418414
2022-09-27T01:20:32.293Z,9.418356
2022-09-27T01:21:32.296Z,9.418268
2022-09-27T01:22:32.285Z,9.418277
2022-09-27T01:23:32.268Z,9.418248
2022-09-27T01:24:32.260Z,9.418275
2022-09-27T01:25:32.249Z,9.418242
2022-09-27T01:26:32.261Z,9.418123
2022-09-27T01:27:32.243Z,9.418179
2022-09-27T01:28:32.216Z,9.418197
2022-09-27T01:29:32.279Z,9.418256
2022-09-27T01:30:32.211Z,9.418032
2022-09-27T01:31:32.373Z,9.418239
2022-09-27T01:32:32.196Z,9.418269
2022-09-27T01:33:32.192Z,9.418291
2022-09-27T01:34:32.220Z,9.418244
2022-09-27T01:35:32.175Z,9.418251
2022-09-27T01:36:32.165Z,9.418309
2022-09-27T01:37:32.228Z,9.418306
2022-09-27T01:38:32.183Z,9.418325
2022-09-27T01:39:32.143Z,9.418336
2022-09-27T01:40:32.194Z,9.418195
2022-09-27T01:41:32.126Z,9.418227
2022-09-27T01:42:32.115Z,9.418229
2022-09-27T01:43:32.132Z,9.418250
2022-09-27T01:44:32.112Z,9.418296
2022-09-27T01:45:32.103Z,9.418230
2022-09-27T01:46:32.213Z,9.418237
2022-09-27T01:47:32.084Z,9.418276
2022-09-27T01:48:32.074Z,9.418299
2022-09-27T01:49:32.084Z,9.418244
2022-09-27T01:50:32.067Z,9.418211
2022-09-27T01:51:32.051Z,9.418227
2022-09-27T01:52:32.053Z,9.418324
2022-09-27T01:53:32.042Z,9.418312
2022-09-27T01:54:32.052Z,9.418292
2022-09-27T01:55:32.023Z,9.418269
2022-09-27T01:56:32.019Z,9.418319
2022-09-27T01:57:32.004Z,9.418313
2022-09-27T01:58:32.000Z,9.418220
2022-09-27T01:59:32.015Z,9.418312
2022-09-27T02:00:31.995Z,9.418344
2022-09-27T02:01:32.042Z,9.418230
2022-09-27T02:02:32.047Z,9.418216
2022-09-27T02:03:31.972Z,9.418304
2022-09-27T02:04:31.983Z,9.418193
2022-09-27T02:05:31.956Z,9.418262
2022-09-27T02:06:31.946Z,9.418330
2022-09-27T02:07:31.947Z,9.418315
2022-09-27T02:08:31.940Z,9.418330
2022-09-27T02:09:31.944Z,9.418346
2022-09-27T02:10:31.924Z,9.418224
2022-09-27T02:11:31.915Z,9.418354
2022-09-27T02:12:31.908Z,9.418353
2022-09-27T02:13:31.903Z,9.418282
2022-09-27T02:14:31.911Z,9.418291
2022-09-27T02:15:31.938Z,9.418245
2022-09-27T02:16:31.882Z,9.418309
2022-09-27T02:17:31.866Z,9.418266
2022-09-27T02:18:31.863Z,9.418337
2022-09-27T02:19:31.862Z,9.418291
2022-09-27T02:20:31.861Z,9.418356
2022-09-27T02:21:31.848Z,9.418386
2022-09-27T02:22:31.847Z,9.418245
2022-09-27T02:23:31.878Z,9.418200
2022-09-27T02:24:31.829Z,9.418298
2022-09-27T02:25:31.826Z,9.418312
2022-09-27T02:26:31.813Z,9.418324
2022-09-27T02:27:31.798Z,9.418273
2022-09-27T02:28:31.791Z,9.418259
2022-09-27T02:29:31.804Z,9.418193
2022-09-27T02:30:31.818Z,9.418307
2022-09-27T02:31:31.845Z,9.418327
2022-09-27T02:32:31.767Z,9.418254
2022-09-27T02:33:31.766Z,9.418263
2022-09-27T02:34:31.751Z,9.418400
2022-09-27T02:35:31.753Z,9.418405
2022-09-27T02:36:31.726Z,9.418435
2022-09-27T02:37:32.723Z,9.418312
2022-09-27T02:38:31.711Z,9.418377
2022-09-27T02:39:31.713Z,9.418409
2022-09-27T02:40:31.788Z,9.418455
2022-09-27T02:41:31.702Z,9.418432
2022-09-27T02:42:31.694Z,9.418436
2022-09-27T02:43:31.680Z,9.418354
2022-09-27T02:44:31.673Z,9.418354
2022-09-27T02:45:31.666Z,9.418435
2022-09-27T02:46:31.794Z,9.418464
2022-09-27T02:47:31.651Z,9.418356
2022-09-27T02:48:31.648Z,9.418275
2022-09-27T02:49:31.650Z,9.418441
2022-09-27T02:50:31.629Z,9.418428
2022-09-27T02:51:31.631Z,9.418399
2022-09-27T02:52:31.629Z,9.418390
2022-09-27T02:53:31.607Z,9.418217
2022-09-27T02:54:31.602Z,9.418256
2022-09-27T02:55:31.607Z,9.418267
2022-09-27T02:56:31.596Z,9.418262
2022-09-27T02:57:31.579Z,9.418255
2022-09-27T02:58:31.586Z,9.418283
2022-09-27T02:59:31.567Z,9.418293
2022-09-27T03:00:31.558Z,9.418169
2022-09-27T03:01:31.637Z,9.418024
2022-09-27T03:02:31.573Z,9.418034
2022-09-27T03:03:31.558Z,9.418198
2022-09-27T03:04:31.533Z,9.418166
2022-09-27T03:05:31.519Z,9.418303
2022-09-27T03:06:31.518Z,9.418323
2022-09-27T03:07:31.518Z,9.418357
2022-09-27T03:08:31.506Z,9.418263
2022-09-27T03:09:31.513Z,9.418351
2022-09-27T03:10:31.496Z,9.418355
2022-09-27T03:11:31.490Z,9.418358
2022-09-27T03:12:31.484Z,9.418340
2022-09-27T03:13:31.466Z,9.418206
2022-09-27T03:14:31.491Z,9.418337
2022-09-27T03:15:31.458Z,9.418271
2022-09-27T03:16:31.481Z,9.418158
2022-09-27T03:17:31.452Z,9.418157
2022-09-27T03:18:31.438Z,9.418278
2022-09-27T03:19:31.442Z,9.418324
2022-09-27T03:20:31.434Z,9.418276
2022-09-27T03:21:31.406Z,9.418376
2022-09-27T03:22:31.427Z,9.418307
2022-09-27T03:23:31.402Z,9.418238
2022-09-27T03:24:31.388Z,9.418221
2022-09-27T03:25:31.388Z,9.418221
2022-09-27T03:26:31.377Z,9.418212
2022-09-27T03:27:31.378Z,9.418197
2022-09-27T03:28:31.360Z,9.418274
2022-09-27T03:29:31.350Z,9.418385
2022-09-27T03:30:31.408Z,9.418386
2022-09-27T03:31:31.418Z,9.418477
2022-09-27T03:32:31.339Z,9.418429
2022-09-27T03:33:31.326Z,9.418356
2022-09-27T03:34:31.318Z,9.418217
2022-09-27T03:35:31.326Z,9.418378
2022-09-27T03:36:31.306Z,9.418536
2022-09-27T03:37:31.298Z,9.418689
2022-09-27T03:38:31.299Z,9.418584
2022-09-27T03:39:31.278Z,9.418461
2022-09-27T03:40:31.299Z,9.418479
2022-09-27T03:41:31.286Z,9.418497
2022-09-27T03:42:31.262Z,9.418445
2022-09-27T03:43:31.258Z,9.418558
2022-09-27T03:44:31.251Z,9.418620
2022-09-27T03:45:31.238Z,9.418500
2022-09-27T03:46:32.359Z,9.418348
2022-09-27T03:47:31.234Z,9.418305
2022-09-27T03:48:31.226Z,9.418260
2022-09-27T03:49:31.212Z,9.418333
2022-09-27T03:50:31.206Z,9.418233
2022-09-27T03:51:31.214Z,9.418202
2022-09-27T03:52:31.195Z,9.418179
2022-09-27T03:53:31.192Z,9.418265
2022-09-27T03:54:31.182Z,9.418178
2022-09-27T03:55:31.183Z,9.418196
2022-09-27T03:56:31.167Z,9.418233
2022-09-27T03:57:31.165Z,9.418273
2022-09-27T03:58:31.150Z,9.418290
2022-09-27T03:59:31.146Z,9.418255
2022-09-27T04:00:31.134Z,9.418275
2022-09-27T04:01:31.183Z,9.418274
2022-09-27T04:02:31.225Z,9.418231
2022-09-27T04:03:31.109Z,9.418175
2022-09-27T04:04:31.106Z,9.418179
2022-09-27T04:05:31.102Z,9.418219
2022-09-27T04:06:31.096Z,9.418357
2022-09-27T04:07:31.089Z,9.418314
2022-09-27T04:08:31.102Z,9.418099
2022-09-27T04:09:31.072Z,9.418108
2022-09-27T04:10:31.052Z,9.418159
2022-09-27T04:11:32.059Z,9.418202
2022-09-27T04:12:31.039Z,9.418274
2022-09-27T04:13:31.057Z,9.418220
2022-09-27T04:14:31.060Z,9.418236
2022-09-27T04:15:31.039Z,9.418268
2022-09-27T04:16:31.066Z,9.418217
2022-09-27T04:17:31.022Z,9.418139
2022-09-27T04:18:31.011Z,9.418157
2022-09-27T04:19:32.009Z,9.418281
2022-09-27T04:20:30.986Z,9.418423
2022-09-27T04:21:30.994Z,9.418304
2022-09-27T04:22:30.970Z,9.418265
2022-09-27T04:23:30.993Z,9.418244
2022-09-27T04:24:30.963Z,9.418226
2022-09-27T04:25:30.959Z,9.418277
2022-09-27T04:26:30.958Z,9.418206
2022-09-27T04:27:30.950Z,9.418227
2022-09-27T04:28:31.042Z,9.418216
2022-09-27T04:29:30.950Z,9.418303
2022-09-27T04:30:30.969Z,9.418221
2022-09-27T04:31:30.993Z,9.418227
2022-09-27T04:32:30.919Z,9.418244
2022-09-27T04:33:30.934Z,9.418200
2022-09-27T04:34:30.902Z,9.418223
2022-09-27T04:35:30.891Z,9.418319
2022-09-27T04:36:30.886Z,9.418267
2022-09-27T04:37:30.881Z,9.418337
2022-09-27T04:38:30.887Z,9.418262
2022-09-27T04:39:30.865Z,9.418229
2022-09-27T04:40:30.939Z,9.418178
2022-09-27T04:41:30.854Z,9.418174
2022-09-27T04:42:30.846Z,9.417948
2022-09-27T04:43:30.841Z,9.417929
2022-09-27T04:44:30.833Z,9.418085
2022-09-27T04:45:30.833Z,9.418212
2022-09-27T04:46:30.886Z,9.418229
2022-09-27T04:47:30.825Z,9.418231
2022-09-27T04:48:30.806Z,9.418297
2022-09-27T04:49:30.982Z,9.418283
2022-09-27T04:50:34.498Z,9.418254
2022-09-27T04:51:32.781Z,9.418254
2022-09-27T04:52:30.775Z,9.418198
2022-09-27T04:53:30.765Z,9.418161
2022-09-27T04:54:30.782Z,9.418283
2022-09-27T04:55:30.755Z,9.418339
2022-09-27T04:56:30.737Z,9.418275
2022-09-27T04:57:30.738Z,9.418241
2022-09-27T04:58:30.725Z,9.418217
2022-09-27T04:59:30.754Z,9.418258
2022-09-27T05:00:30.718Z,9.418142
2022-09-27T05:01:30.736Z,9.418098
2022-09-27T05:02:30.750Z,9.418090
2022-09-27T05:03:30.709Z,9.418157
2022-09-27T05:04:30.686Z,9.418235
2022-09-27T05:05:30.726Z,9.418249
2022-09-27T05:06:30.672Z,9.418156
2022-09-27T05:07:30.673Z,9.418139
2022-09-27T05:08:30.653Z,9.418139
2022-09-27T05:09:30.653Z,9.418215
2022-09-27T05:10:30.662Z,9.418250
2022-09-27T05:11:30.632Z,9.418221
2022-09-27T05:12:30.620Z,9.418245
2022-09-27T05:13:30.620Z,9.418213
2022-09-27T05:14:30.620Z,9.418208
2022-09-27T05:15:30.624Z,9.418140
2022-09-27T05:16:33.360Z,9.418236
2022-09-27T05:17:30.601Z,9.418216
2022-09-27T05:18:30.585Z,9.418287
2022-09-27T05:19:30.581Z,9.418272
2022-09-27T05:20:30.588Z,9.418313
2022-09-27T05:21:30.594Z,9.418295
2022-09-27T05:22:30.564Z,9.418184
2022-09-27T05:23:30.556Z,9.418101
2022-09-27T05:24:30.553Z,9.418015
2022-09-27T05:25:30.558Z,9.418170
2022-09-27T05:26:30.540Z,9.418144
2022-09-27T05:27:30.533Z,9.418184
2022-09-27T05:28:30.531Z,9.418168
2022-09-27T05:29:30.529Z,9.418408
2022-09-27T05:30:30.542Z,9.418462
2022-09-27T05:31:30.501Z,9.418292
2022-09-27T05:32:30.490Z,9.418262
2022-09-27T05:33:30.492Z,9.418184
2022-09-27T05:34:30.485Z,9.418274
2022-09-27T05:35:30.473Z,9.418254
2022-09-27T05:36:30.468Z,9.418247
2022-09-27T05:37:30.465Z,9.418285
2022-09-27T05:38:30.445Z,9.418277
2022-09-27T05:39:31.472Z,9.418345
2022-09-27T05:40:41.178Z,9.418362
2022-09-27T05:41:32.584Z,9.418285
2022-09-27T05:42:30.417Z,9.418332
2022-09-27T05:43:30.415Z,9.418440
2022-09-27T05:44:30.409Z,9.418437
2022-09-27T05:45:30.401Z,9.418416
2022-09-27T05:46:30.479Z,9.418374
2022-09-27T05:47:30.401Z,9.418435
2022-09-27T05:48:30.408Z,9.418390
2022-09-27T05:49:30.362Z,9.418386
2022-09-27T05:50:30.368Z,9.418325
2022-09-27T05:51:30.362Z,9.418395
2022-09-27T05:52:30.355Z,9.418338
2022-09-27T05:53:30.344Z,9.418438
2022-09-27T05:54:30.336Z,9.418418
2022-09-27T05:55:30.334Z,9.418363
2022-09-27T05:56:30.329Z,9.418427
2022-09-27T05:57:30.325Z,9.418364
2022-09-27T05:58:30.314Z,9.418429
2022-09-27T05:59:30.303Z,9.418415
2022-09-27T06:00:30.318Z,9.418315
2022-09-27T06:01:30.363Z,9.418292
2022-09-27T06:02:30.339Z,9.418361
2022-09-27T06:03:30.278Z,9.418345
2022-09-27T06:04:30.269Z,9.418420
2022-09-27T06:05:30.268Z,9.418365
2022-09-27T06:06:30.263Z,9.418323
2022-09-27T06:07:30.293Z,9.418303
2022-09-27T06:08:30.268Z,9.418275
2022-09-27T06:09:30.240Z,9.418363
2022-09-27T06:10:30.231Z,9.418329
2022-09-27T06:11:30.236Z,9.418243
2022-09-27T06:12:30.224Z,9.418303
2022-09-27T06:13:30.212Z,9.418297
2022-09-27T06:14:30.233Z,9.418240
2022-09-27T06:15:30.201Z,9.418298
2022-09-27T06:16:30.250Z,9.418328
2022-09-27T06:17:30.196Z,9.418377
2022-09-27T06:18:30.185Z,9.418333
2022-09-27T06:19:30.168Z,9.418447
2022-09-27T06:20:30.164Z,9.418282
2022-09-27T06:21:30.166Z,9.418274
2022-09-27T06:22:30.160Z,9.418231
2022-09-27T06:23:30.140Z,9.418313
2022-09-27T06:24:30.168Z,9.418301
2022-09-27T06:25:30.132Z,9.418240
2022-09-27T06:26:30.120Z,9.418283
2022-09-27T06:27:30.128Z,9.418311
2022-09-27T06:28:30.105Z,9.418256
2022-09-27T06:29:30.097Z,9.418300
2022-09-27T06:30:30.188Z,9.418345
2022-09-27T06:31:30.088Z,9.418262
2022-09-27T06:32:30.088Z,9.418168
2022-09-27T06:33:30.228Z,9.418141
2022-09-27T06:34:30.068Z,9.418347
2022-09-27T06:35:30.080Z,9.418269
2022-09-27T06:36:30.053Z,9.418234
2022-09-27T06:37:30.044Z,9.418164
2022-09-27T06:38:30.031Z,9.418239
2022-09-27T06:39:30.032Z,9.418254
2022-09-27T06:40:30.075Z,9.418292
2022-09-27T06:41:30.016Z,9.418277
2022-09-27T06:42:30.011Z,9.418350
2022-09-27T06:43:30.005Z,9.418339
2022-09-27T06:44:29.993Z,9.418320
2022-09-27T06:45:30.012Z,9.418342
2022-09-27T06:46:29.988Z,9.418386
2022-09-27T06:47:29.979Z,9.418370
2022-09-27T06:48:29.972Z,9.418376
2022-09-27T06:49:29.967Z,9.418323
2022-09-27T06:50:29.960Z,9.418352
2022-09-27T06:51:29.963Z,9.418337
2022-09-27T06:52:29.940Z,9.418322
2022-09-27T06:53:29.962Z,9.418253
2022-09-27T06:54:29.949Z,9.418273
2022-09-27T06:55:29.923Z,9.418294
2022-09-27T06:56:29.929Z,9.418323
2022-09-27T06:57:30.049Z,9.418270
2022-09-27T06:58:29.911Z,9.418306
2022-09-27T06:59:29.890Z,9.418298
2022-09-27T07:00:30.887Z,9.418284
2022-09-27T07:01:30.091Z,9.418303
2022-09-27T07:02:29.927Z,9.418239
2022-09-27T07:03:34.415Z,9.418249
2022-09-27T07:04:31.863Z,9.418297
2022-09-27T07:05:29.860Z,9.418270
2022-09-27T07:06:29.860Z,9.418232
2022-09-27T07:07:29.842Z,9.418282
2022-09-27T07:08:29.832Z,9.418308
2022-09-27T07:09:29.840Z,9.418247
2022-09-27T07:10:29.823Z,9.418162
2022-09-27T07:11:29.816Z,9.418119
2022-09-27T07:12:29.812Z,9.418084
2022-09-27T07:13:29.808Z,9.418259
2022-09-27T07:14:29.859Z,9.418247
2022-09-27T07:15:29.796Z,9.418246
2022-09-27T07:16:29.841Z,9.418230
2022-09-27T07:17:29.782Z,9.418170
2022-09-27T07:18:29.772Z,9.418200
2022-09-27T07:19:29.786Z,9.418317
2022-09-27T07:20:29.760Z,9.418396
2022-09-27T07:21:29.768Z,9.418300
2022-09-27T07:22:29.793Z,9.418251
2022-09-27T07:23:29.745Z,9.418256
2022-09-27T07:24:29.735Z,9.418313
2022-09-27T07:25:29.723Z,9.418338
2022-09-27T07:26:29.813Z,9.418265
2022-09-27T07:27:29.731Z,9.418250
2022-09-27T07:28:29.717Z,9.418405
2022-09-27T07:29:29.700Z,9.418325
2022-09-27T07:30:29.764Z,9.418173
2022-09-27T07:31:29.691Z,9.418296
2022-09-27T07:32:29.683Z,9.418291
2022-09-27T07:33:29.699Z,9.418318
2022-09-27T07:34:29.667Z,9.418318
2022-09-27T07:35:29.687Z,9.418166
2022-09-27T07:36:29.660Z,9.418273
2022-09-27T07:37:29.652Z,9.418149
2022-09-27T07:38:29.656Z,9.418181
2022-09-27T07:39:29.640Z,9.418180
2022-09-27T07:40:29.695Z,9.418221
2022-09-27T07:41:29.624Z,9.418181
2022-09-27T07:42:29.619Z,9.418228
2022-09-27T07:43:29.624Z,9.418358
2022-09-27T07:44:29.603Z,9.418206
2022-09-27T07:45:29.591Z,9.418330
2022-09-27T07:46:29.591Z,9.418284
2022-09-27T07:47:29.619Z,9.418297
2022-09-27T07:48:29.591Z,9.418337
2022-09-27T07:49:29.586Z,9.418256
2022-09-27T07:50:29.612Z,9.418241
2022-09-27T07:51:29.554Z,9.418229
2022-09-27T07:52:29.551Z,9.418261
2022-09-27T07:53:29.583Z,9.418230
2022-09-27T07:54:29.538Z,9.418342
2022-09-27T07:55:29.543Z,9.418198
2022-09-27T07:56:29.532Z,9.418314
2022-09-27T07:57:29.516Z,9.418353
2022-09-27T07:58:29.509Z,9.418292
2022-09-27T07:59:29.519Z,9.418479
2022-09-27T08:00:29.503Z,9.418432
2022-09-27T08:01:29.545Z,9.418328
2022-09-27T08:02:29.658Z,9.418442
2022-09-27T08:03:29.478Z,9.418340
2022-09-27T08:04:29.494Z,9.418515
2022-09-27T08:05:29.471Z,9.418359
2022-09-27T08:06:29.458Z,9.418403
2022-09-27T08:07:29.446Z,9.418386
2022-09-27T08:08:29.446Z,9.418282
2022-09-27T08:09:29.459Z,9.418326
2022-09-27T08:10:29.432Z,9.418439
2022-09-27T08:11:29.443Z,9.418313
2022-09-27T08:12:29.454Z,9.418203
2022-09-27T08:13:29.434Z,9.418199
2022-09-27T08:14:29.403Z,9.418261
2022-09-27T08:15:29.422Z,9.418096
2022-09-27T08:16:29.434Z,9.418530
2022-09-27T08:17:29.389Z,9.418175
2022-09-27T08:18:29.387Z,9.418309
2022-09-27T08:19:29.371Z,9.418242
2022-09-27T08:20:29.378Z,9.418150
2022-09-27T08:21:29.362Z,9.418044
2022-09-27T08:22:29.346Z,9.418155
2022-09-27T08:23:29.347Z,9.418222
2022-09-27T08:24:29.339Z,9.418227
2022-09-27T08:25:29.348Z,9.418155
2022-09-27T08:26:29.327Z,9.418142
2022-09-27T08:27:29.318Z,9.418039
2022-09-27T08:28:29.307Z,9.418182
2022-09-27T08:29:29.306Z,9.418167
2022-09-27T08:30:29.306Z,9.418283
2022-09-27T08:31:29.317Z,9.418042
2022-09-27T08:32:29.284Z,9.418099
2022-09-27T08:33:32.863Z,9.418272
2022-09-27T08:34:30.253Z,9.418306
2022-09-27T08:35:29.265Z,9.418324
2022-09-27T08:36:29.266Z,9.418169
2022-09-27T08:37:29.238Z,9.418199
2022-09-27T08:38:29.236Z,9.418305
2022-09-27T08:39:29.227Z,9.418314
2022-09-27T08:40:29.265Z,9.418433
2022-09-27T08:41:29.228Z,9.418435
2022-09-27T08:42:29.200Z,9.418186
2022-09-27T08:43:29.182Z,9.418159
2022-09-27T08:44:29.195Z,9.418365
2022-09-27T08:45:29.213Z,9.418359
2022-09-27T08:46:29.166Z,9.418206
2022-09-27T08:47:29.167Z,9.418213
2022-09-27T08:48:29.159Z,9.418184
2022-09-27T08:49:29.158Z,9.418228
2022-09-27T08:50:29.148Z,9.418181
2022-09-27T08:51:29.158Z,9.418222
2022-09-27T08:52:29.135Z,9.418208
2022-09-27T08:53:29.118Z,9.418163
2022-09-27T08:54:29.111Z,9.418162
2022-09-27T08:55:29.110Z,9.418030
2022-09-27T08:56:29.105Z,9.418101
2022-09-27T08:57:29.103Z,9.418206
2022-09-27T08:58:29.083Z,9.418216
2022-09-27T08:59:29.075Z,9.418114
2022-09-27T09:00:29.066Z,9.418217
2022-09-27T09:01:29.424Z,9.418235
2022-09-27T09:02:29.126Z,9.418031
2022-09-27T09:03:29.043Z,9.417927
2022-09-27T09:04:29.028Z,9.418078
2022-09-27T09:05:29.021Z,9.418127
2022-09-27T09:06:29.019Z,9.418153
2022-09-27T09:07:29.018Z,9.418090
2022-09-27T09:08:29.008Z,9.418096
2022-09-27T09:09:28.995Z,9.418313
2022-09-27T09:10:28.987Z,9.418095
2022-09-27T09:11:28.982Z,9.418218
2022-09-27T09:12:28.995Z,9.418154
2022-09-27T09:13:28.967Z,9.418376
2022-09-27T09:14:28.958Z,9.418324
2022-09-27T09:15:28.954Z,9.418178
2022-09-27T09:16:29.061Z,9.418191
2022-09-27T09:17:28.953Z,9.418066
2022-09-27T09:18:28.914Z,9.418288
2022-09-27T09:19:28.935Z,9.418295
2022-09-27T09:20:28.911Z,9.418102
2022-09-27T09:21:28.899Z,9.418040
2022-09-27T09:22:28.914Z,9.418224
2022-09-27T09:23:28.898Z,9.418253
2022-09-27T09:24:28.899Z,9.418232
2022-09-27T09:25:28.887Z,9.418221
2022-09-27T09:26:28.874Z,9.418344
2022-09-27T09:27:28.867Z,9.418287
2022-09-27T09:28:28.858Z,9.418313
2022-09-27T09:29:28.859Z,9.418304
2022-09-27T09:30:28.842Z,9.418225
2022-09-27T09:31:28.875Z,9.418196
2022-09-27T09:32:28.830Z,9.418188
2022-09-27T09:33:28.812Z,9.418302
2022-09-27T09:34:28.814Z,9.418260
2022-09-27T09:35:28.819Z,9.418233
2022-09-27T09:36:28.791Z,9.418236
2022-09-27T09:37:28.790Z,9.418272
2022-09-27T09:38:28.779Z,9.418264
2022-09-27T09:39:28.779Z,9.418232
2022-09-27T09:40:28.816Z,9.418239
2022-09-27T09:41:28.758Z,9.418249
2022-09-27T09:42:28.747Z,9.418298
2022-09-27T09:43:28.736Z,9.418346
2022-09-27T09:44:28.778Z,9.418263
2022-09-27T09:45:28.772Z,9.418300
2022-09-27T09:46:28.721Z,9.418259
2022-09-27T09:47:28.721Z,9.418252
2022-09-27T09:48:28.702Z,9.418297
2022-09-27T09:49:28.711Z,9.418207
2022-09-27T09:50:28.707Z,9.418277
2022-09-27T09:51:28.689Z,9.418321
2022-09-27T09:52:28.675Z,9.418316
2022-09-27T09:53:28.666Z,9.418321
2022-09-27T09:54:28.673Z,9.418489
2022-09-27T09:55:28.669Z,9.418470
2022-09-27T09:56:28.658Z,9.418334
2022-09-27T09:57:28.659Z,9.418358
2022-09-27T09:58:28.633Z,9.418362
2022-09-27T09:59:28.631Z,9.418285
2022-09-27T10:00:28.642Z,9.418283
2022-09-27T10:01:28.781Z,9.418282
2022-09-27T10:02:28.664Z,9.418284
2022-09-27T10:03:28.603Z,9.418310
2022-09-27T10:04:28.590Z,9.418247
2022-09-27T10:05:28.597Z,9.418294
2022-09-27T10:06:28.594Z,9.418243
2022-09-27T10:07:28.558Z,9.418287
2022-09-27T10:08:28.551Z,9.418352
2022-09-27T10:09:28.550Z,9.418285
2022-09-27T10:10:28.562Z,9.418251
2022-09-27T10:11:28.539Z,9.418303
2022-09-27T10:12:28.538Z,9.418313
2022-09-27T10:13:28.526Z,9.418292
2022-09-27T10:14:28.517Z,9.418295
2022-09-27T10:15:28.531Z,9.418240
2022-09-27T10:16:28.524Z,9.418318
2022-09-27T10:17:28.503Z,9.418280
2022-09-27T10:18:28.490Z,9.418229
2022-09-27T10:19:28.498Z,9.418318
2022-09-27T10:20:28.494Z,9.418263
2022-09-27T10:21:28.482Z,9.418198
2022-09-27T10:22:28.469Z,9.418220
2022-09-27T10:23:28.501Z,9.418184
2022-09-27T10:24:28.454Z,9.418338
2022-09-27T10:25:28.465Z,9.418297
2022-09-27T10:26:28.434Z,9.418282
2022-09-27T10:27:28.434Z,9.418258
2022-09-27T10:28:28.411Z,9.418330
2022-09-27T10:29:28.414Z,9.418386
2022-09-27T10:30:28.446Z,9.418304
2022-09-27T10:31:28.441Z,9.418251
2022-09-27T10:32:28.399Z,9.418244
2022-09-27T10:33:28.418Z,9.418344
2022-09-27T10:34:28.397Z,9.418231
2022-09-27T10:35:28.486Z,9.418387
2022-09-27T10:36:28.373Z,9.418375
2022-09-27T10:37:28.357Z,9.418292
2022-09-27T10:38:28.345Z,9.418194
2022-09-27T10:39:28.356Z,9.418332
2022-09-27T10:40:28.402Z,9.418288
2022-09-27T10:41:28.326Z,9.418343
2022-09-27T10:42:28.326Z,9.418317
2022-09-27T10:43:29.795Z,9.418388
2022-09-27T10:44:29.314Z,9.418312
2022-09-27T10:45:28.339Z,9.418268
2022-09-27T10:46:28.310Z,9.418267
2022-09-27T10:47:28.289Z,9.418352
2022-09-27T10:48:28.278Z,9.418289
2022-09-27T10:49:28.280Z,9.418272
2022-09-27T10:50:50.102Z,9.418212
2022-09-27T10:51:30.282Z,9.418407
2022-09-27T10:52:28.250Z,9.418062
2022-09-27T10:53:29.245Z,9.418241
2022-09-27T10:54:28.270Z,9.418322
2022-09-27T10:55:28.234Z,9.418363
2022-09-27T10:56:28.247Z,9.418230
2022-09-27T10:57:28.222Z,9.418491
2022-09-27T10:58:28.207Z,9.418756
2022-09-27T10:59:28.209Z,9.418171
2022-09-27T11:00:28.183Z,9.418210
2022-09-27T11:01:28.238Z,9.418095
2022-09-27T11:02:28.186Z,9.418295
2022-09-27T11:03:28.178Z,9.418241
2022-09-27T11:04:28.177Z,9.418312
2022-09-27T11:05:28.179Z,9.418238
2022-09-27T11:06:28.149Z,9.418710
2022-09-27T11:07:28.162Z,9.418406
2022-09-27T11:08:28.129Z,9.418143
2022-09-27T11:09:28.138Z,9.418370
2022-09-27T11:10:28.130Z,9.418032
2022-09-27T11:11:28.113Z,9.417945
2022-09-27T11:12:28.150Z,9.418313
2022-09-27T11:13:28.109Z,9.418446
2022-09-27T11:14:28.093Z,9.418528
2022-09-27T11:15:28.093Z,9.418378
2022-09-27T11:16:28.117Z,9.418159
2022-09-27T11:17:28.093Z,9.417976
2022-09-27T11:18:28.065Z,9.418044
2022-09-27T11:19:28.061Z,9.418086
2022-09-27T11:20:28.137Z,9.418311
2022-09-27T11:21:28.053Z,9.418341
2022-09-27T11:22:28.050Z,9.418297
2022-09-27T11:23:28.039Z,9.418231
2022-09-27T11:24:28.038Z,9.418189
2022-09-27T11:25:31.718Z,9.418304
2022-09-27T11:26:29.021Z,9.418264
2022-09-27T11:27:28.005Z,9.418306
2022-09-27T11:28:28.021Z,9.418281
2022-09-27T11:29:27.989Z,9.418296
2022-09-27T11:30:27.985Z,9.418301
2022-09-27T11:31:27.998Z,9.418270
2022-09-27T11:32:27.970Z,9.418250
2022-09-27T11:33:27.995Z,9.418181
2022-09-27T11:34:27.957Z,9.418352
2022-09-27T11:35:27.950Z,9.418348
2022-09-27T11:36:27.937Z,9.418320
2022-09-27T11:37:27.935Z,9.418330
2022-09-27T11:38:51.241Z,9.418363
2022-09-27T11:39:29.930Z,9.418341
2022-09-27T11:40:27.963Z,9.418353
2022-09-27T11:41:27.911Z,9.418419
2022-09-27T11:42:27.898Z,9.418409
2022-09-27T11:43:27.889Z,9.418312
2022-09-27T11:44:27.885Z,9.418313